createdAt,value
2022-11-22T00:01:30.522Z,-3.80
2022-11-22T00:06:35.768Z,-3.60
2022-11-22T00:11:40.869Z,-3.60
2022-11-22T00:16:45.768Z,-3.70
2022-11-22T00:21:51.837Z,-3.70
2022-11-22T00:26:56.995Z,-3.80
2022-11-22T00:32:02.289Z,-3.60
2022-11-22T00:37:07.915Z,-3.70
2022-11-22T00:42:13.597Z,-3.40
2022-11-22T00:47:18.734Z,-3.50
2022-11-22T00:52:24.958Z,-3.70
2022-11-22T00:57:30.832Z,-3.70
2022-11-22T01:02:35.909Z,-3.50
2022-11-22T01:07:41.195Z,-3.50
2022-11-22T01:12:46.876Z,-3.50
2022-11-22T01:17:52.146Z,-3.60
2022-11-22T01:22:58.233Z,-3.60
2022-11-22T01:28:04.072Z,-3.50
2022-11-22T01:33:09.376Z,-3.50
2022-11-22T01:38:14.625Z,-3.30
2022-11-22T01:43:22.369Z,-3.40
2022-11-22T01:48:33.802Z,-3.40
2022-11-22T01:53:41.310Z,-3.50
2022-11-22T01:58:49.721Z,-3.30
2022-11-22T02:03:58.852Z,-3.60
2022-11-22T02:09:06.969Z,-3.70
2022-11-22T02:14:12.889Z,-3.80
2022-11-22T02:19:21.304Z,-3.90
2022-11-22T02:24:29.258Z,-3.60
2022-11-22T02:29:35.930Z,-3.50
2022-11-22T02:34:48.518Z,-4.20
2022-11-22T02:40:02.489Z,-4.20
2022-11-22T02:45:07.948Z,-3.80
2022-11-22T02:50:12.844Z,-3.80
2022-11-22T02:55:17.895Z,-3.80
2022-11-22T03:00:23.107Z,-3.90
2022-11-22T03:05:28.533Z,-3.60
2022-11-22T03:10:33.916Z,-3.90
2022-11-22T03:15:39.338Z,-3.90
2022-11-22T03:20:44.679Z,-3.90
2022-11-22T03:25:50.160Z,-3.80
2022-11-22T03:30:55.455Z,-3.50
2022-11-22T03:36:01.325Z,-3.80
2022-11-22T03:41:06.657Z,-3.70
2022-11-22T03:46:21.279Z,-3.60
2022-11-22T03:51:28.155Z,-3.60
2022-11-22T03:56:33.359Z,-3.80
2022-11-22T04:01:38.518Z,-3.60
2022-11-22T04:06:43.941Z,-3.50
2022-11-22T04:11:48.844Z,-3.70
2022-11-22T04:16:54.759Z,-3.60
2022-11-22T04:22:00.926Z,-3.60
2022-11-22T04:27:06.089Z,-3.90
2022-11-22T04:32:28.841Z,-3.90
2022-11-22T04:37:34.019Z,-4.10
2022-11-22T04:42:56.817Z,-3.90
2022-11-22T04:48:01.905Z,-3.50
2022-11-22T04:53:07.940Z,-4.30
2022-11-22T04:58:13.837Z,-3.90
2022-11-22T05:03:19.122Z,-4.00
2022-11-22T05:08:24.602Z,-4.00
2022-11-22T05:13:32.951Z,-3.90
2022-11-22T05:18:38.583Z,-4.20
2022-11-22T05:23:56.306Z,-4.50
2022-11-22T05:29:07.301Z,-4.80
2022-11-22T05:34:12.707Z,-4.30
2022-11-22T05:39:18.009Z,-4.00
2022-11-22T05:44:24.460Z,-3.80
2022-11-22T05:49:30.058Z,-3.70
2022-11-22T05:54:35.419Z,-3.40
2022-11-22T05:59:44.352Z,-3.50
2022-11-22T06:04:48.185Z,-3.30
2022-11-22T06:09:53.647Z,-2.40
2022-11-22T06:14:58.704Z,-2.80
2022-11-22T06:20:07.033Z,-2.80
2022-11-22T06:25:12.652Z,-3.00
2022-11-22T06:30:17.974Z,-3.20
2022-11-22T06:35:23.062Z,-2.60
2022-11-22T06:40:28.401Z,-2.60
2022-11-22T06:45:33.883Z,-2.70
2022-11-22T06:50:39.542Z,-2.70
2022-11-22T06:55:54.488Z,-2.50
2022-11-22T07:00:51.589Z,-2.30
2022-11-22T07:05:56.840Z,-2.10
2022-11-22T07:11:07.372Z,-1.90
2022-11-22T07:16:14.367Z,-1.80
2022-11-22T07:21:22.253Z,-1.50
2022-11-22T07:26:28.578Z,-1.40
2022-11-22T07:31:35.271Z,-1.20
2022-11-22T07:36:39.551Z,-1.00
2022-11-22T07:41:44.756Z,-0.80
2022-11-22T07:46:50.451Z,-0.70
2022-11-22T07:51:55.500Z,0.00
2022-11-22T07:57:00.529Z,0.40
2022-11-22T08:02:05.963Z,0.50
2022-11-22T08:07:11.193Z,1.00
2022-11-22T08:12:16.297Z,1.10
2022-11-22T08:17:21.277Z,1.30
2022-11-22T08:22:26.179Z,0.70
2022-11-22T08:27:31.098Z,0.70
2022-11-22T08:32:36.679Z,0.90
2022-11-22T08:37:42.243Z,1.30
2022-11-22T08:42:47.157Z,0.70
2022-11-22T08:47:53.016Z,0.70
2022-11-22T08:52:58.415Z,1.00
2022-11-22T08:58:04.125Z,1.50
2022-11-22T09:03:09.037Z,2.00
2022-11-22T09:13:20.979Z,2.40
2022-11-22T09:18:26.962Z,2.90
2022-11-22T09:23:33.132Z,3.10
2022-11-22T09:28:39.827Z,3.30
2022-11-22T09:33:47.298Z,3.70
2022-11-22T09:38:52.542Z,4.00
2022-11-22T09:44:16.062Z,4.40
2022-11-22T09:49:28.099Z,4.20
2022-11-22T09:54:48.432Z,4.00
2022-11-22T09:59:59.312Z,4.10
2022-11-22T10:05:07.545Z,3.90
2022-11-22T10:10:21.527Z,3.80
2022-11-22T10:15:38.715Z,3.80
2022-11-22T10:20:48.798Z,4.00
2022-11-22T10:26:24.481Z,4.30
2022-11-22T10:31:47.963Z,4.60
2022-11-22T10:37:17.334Z,4.70
2022-11-22T10:42:31.351Z,4.80
2022-11-22T10:47:59.438Z,5.20
2022-11-22T10:53:10.117Z,5.10
2022-11-22T10:58:34.954Z,5.00
2022-11-22T11:03:43.640Z,5.00
2022-11-22T11:09:47.682Z,4.80
2022-11-22T11:14:19.491Z,5.00
2022-11-22T11:19:33.465Z,5.00
2022-11-22T11:24:41.391Z,5.20
2022-11-22T11:29:52.263Z,5.40
2022-11-22T11:35:02.846Z,5.50
2022-11-22T11:40:28.473Z,5.50
2022-11-22T11:45:33.343Z,5.50
2022-11-22T11:50:38.527Z,5.50
2022-11-22T11:55:43.828Z,5.30
2022-11-22T12:00:49.247Z,5.20
2022-11-22T12:05:57.486Z,5.30
2022-11-22T12:11:09.467Z,5.30
2022-11-22T12:16:23.343Z,5.50
2022-11-22T12:21:57.302Z,5.50
2022-11-22T12:27:02.759Z,5.60
2022-11-22T12:32:23.254Z,5.60
2022-11-22T12:37:32.057Z,5.30
2022-11-22T12:42:43.664Z,5.20
2022-11-22T12:47:50.609Z,5.20
2022-11-22T12:53:07.878Z,5.10
2022-11-22T12:58:29.979Z,5.00
2022-11-22T13:03:38.343Z,4.70
2022-11-22T13:09:04.501Z,4.70
2022-11-22T13:14:21.039Z,4.50
2022-11-22T13:19:25.615Z,4.40
2022-11-22T13:24:40.331Z,4.30
2022-11-22T13:29:47.940Z,4.40
2022-11-22T13:35:14.388Z,4.40
2022-11-22T13:40:31.630Z,4.40
2022-11-22T13:45:54.516Z,4.30
2022-11-22T13:51:04.287Z,4.30
2022-11-22T13:56:18.209Z,4.20
2022-11-22T14:01:38.798Z,3.70
2022-11-22T14:06:55.887Z,3.10
2022-11-22T14:12:13.082Z,2.80
2022-11-22T14:17:41.980Z,2.50
2022-11-22T14:23:05.741Z,2.50
2022-11-22T14:28:22.769Z,2.50
2022-11-22T14:33:29.752Z,2.20
2022-11-22T14:38:41.182Z,2.30
2022-11-22T14:43:46.383Z,2.50
2022-11-22T14:49:04.195Z,2.40
2022-11-22T14:54:18.666Z,2.40
2022-11-22T14:59:52.206Z,2.40
2022-11-22T15:09:21.290Z,2.30
2022-11-22T15:10:30.392Z,2.00
2022-11-22T15:57:13.938Z,1.30
2022-11-22T16:02:18.734Z,1.20
2022-11-22T16:07:44.210Z,1.30
2022-11-22T16:12:50.569Z,1.30
2022-11-22T16:18:11.117Z,1.30
2022-11-22T16:23:19.218Z,1.30
2022-11-22T16:28:27.756Z,1.30
2022-11-22T16:33:33.510Z,1.20
2022-11-22T16:38:39.107Z,1.10
2022-11-22T16:43:44.824Z,1.10
2022-11-22T16:48:50.827Z,1.00
2022-11-22T16:53:59.004Z,1.10
2022-11-22T16:59:08.436Z,1.10
2022-11-22T17:04:15.824Z,1.10
2022-11-22T17:09:21.924Z,0.90
2022-11-22T17:14:27.506Z,0.80
2022-11-22T17:24:40.237Z,0.60
2022-11-22T17:29:50.603Z,0.50
2022-11-22T17:34:52.738Z,0.50
2022-11-22T17:39:57.885Z,0.50
2022-11-22T17:45:02.993Z,0.40
2022-11-22T17:50:08.778Z,0.60
2022-11-22T17:55:14.644Z,0.60
2022-11-22T18:00:24.212Z,0.50
2022-11-22T18:05:26.699Z,0.30
2022-11-22T18:10:31.728Z,0.10
2022-11-22T18:15:36.784Z,0.10
2022-11-22T18:20:42.231Z,0.00
2022-11-22T18:25:47.599Z,0.10
2022-11-22T18:30:55.245Z,0.20
2022-11-22T18:36:49.396Z,0.30
2022-11-22T18:41:14.565Z,0.40
2022-11-22T18:46:20.276Z,0.50
2022-11-22T18:51:26.486Z,0.50
2022-11-22T18:56:31.952Z,0.30
2022-11-22T19:01:37.473Z,0.20
2022-11-22T19:06:44.376Z,-0.10
2022-11-22T19:11:51.845Z,0.10
2022-11-22T19:16:57.380Z,0.10
2022-11-22T19:22:03.491Z,0.00
2022-11-22T19:27:09.113Z,0.00
2022-11-22T19:32:13.958Z,0.10
2022-11-22T19:37:20.170Z,0.10
2022-11-22T19:42:27.790Z,0.20
2022-11-22T19:47:33.104Z,0.30
2022-11-22T19:52:38.805Z,-0.30
2022-11-22T19:57:46.066Z,-0.50
2022-11-22T20:02:51.992Z,-0.60
2022-11-22T20:07:57.991Z,-0.50
2022-11-22T20:13:06.616Z,-0.50
2022-11-22T20:18:11.654Z,-0.30
2022-11-22T20:23:16.543Z,-0.10
2022-11-22T20:28:22.876Z,-0.20
2022-11-22T20:33:29.396Z,-0.20
2022-11-22T20:38:36.626Z,-0.30
2022-11-22T20:43:42.332Z,-0.30
2022-11-22T20:48:49.484Z,-0.30
2022-11-22T20:53:56.216Z,-0.10
2022-11-22T20:59:02.579Z,-0.10
2022-11-22T21:04:09.954Z,-0.40
2022-11-22T21:09:16.200Z,-0.20
2022-11-22T21:14:21.446Z,-0.40
2022-11-22T21:19:26.848Z,-0.40
2022-11-22T21:24:33.844Z,-0.60
2022-11-22T21:29:39.355Z,-0.50
2022-11-22T21:34:44.357Z,-0.50
2022-11-22T21:39:49.263Z,-0.50
2022-11-22T21:44:55.896Z,-0.50
2022-11-22T21:50:05.020Z,-0.30
2022-11-22T21:55:10.205Z,-0.20
2022-11-22T22:00:15.755Z,-0.30
2022-11-22T22:05:21.799Z,-0.20
2022-11-22T22:10:28.194Z,-0.30
2022-11-22T22:15:33.291Z,-0.30
2022-11-22T22:20:38.626Z,-0.10
2022-11-22T22:25:44.134Z,0.00
2022-11-22T22:30:49.341Z,0.00
2022-11-22T22:35:54.800Z,0.10
2022-11-22T22:41:02.274Z,0.10
2022-11-22T22:46:16.785Z,-0.10
2022-11-22T22:51:32.439Z,0.00
2022-11-22T22:56:33.792Z,0.00
2022-11-22T23:01:39.354Z,0.20
2022-11-22T23:06:45.130Z,0.30
2022-11-22T23:12:08.496Z,0.20
2022-11-22T23:17:13.579Z,0.30
2022-11-22T23:22:23.276Z,0.20
2022-11-22T23:27:25.836Z,0.10
2022-11-22T23:32:32.758Z,-0.10
2022-11-22T23:37:37.300Z,0.00
2022-11-22T23:42:42.701Z,0.00
2022-11-22T23:47:51.388Z,-0.10
2022-11-22T23:52:57.162Z,-0.10
2022-11-22T23:58:02.357Z,-0.20
